createdAt,value
2023-05-23T00:01:39.908Z,12.38
2023-05-23T00:04:06.944Z,10.88
2023-05-23T00:06:34.305Z,9.27
2023-05-23T00:09:01.360Z,11.98
2023-05-23T00:11:29.159Z,14.27
2023-05-23T00:14:01.039Z,11.90
2023-05-23T00:16:28.005Z,10.63
2023-05-23T00:18:57.532Z,11.45
2023-05-23T00:21:24.564Z,11.77
2023-05-23T00:23:51.450Z,11.57
2023-05-23T00:26:18.324Z,10.98
2023-05-23T00:28:45.217Z,10.55
2023-05-23T00:31:12.178Z,10.43
2023-05-23T00:33:39.017Z,10.18
2023-05-23T00:36:06.097Z,10.20
2023-05-23T00:38:33.017Z,10.57
2023-05-23T00:41:00.146Z,11.07
2023-05-23T00:43:27.526Z,12.07
2023-05-23T00:45:54.352Z,11.68
2023-05-23T00:48:21.585Z,11.65
2023-05-23T00:50:48.536Z,14.00
2023-05-23T00:53:16.926Z,14.25
2023-05-23T00:55:45.009Z,14.73
2023-05-23T00:58:13.128Z,14.25
2023-05-23T01:00:40.190Z,13.90
2023-05-23T01:03:07.121Z,16.35
2023-05-23T01:05:34.032Z,15.02
2023-05-23T01:08:03.306Z,12.52
2023-05-23T01:10:31.485Z,14.23
2023-05-23T01:13:20.922Z,11.93
2023-05-23T01:16:02.961Z,12.02
2023-05-23T01:18:38.377Z,13.13
2023-05-23T01:21:17.028Z,14.88
2023-05-23T01:24:12.818Z,13.18
2023-05-23T01:27:11.755Z,13.88
2023-05-23T01:29:45.704Z,15.43
2023-05-23T01:32:14.389Z,16.67
2023-05-23T01:34:43.703Z,16.75
2023-05-23T01:37:14.463Z,18.52
2023-05-23T01:39:42.164Z,19.23
2023-05-23T01:42:09.540Z,21.80
2023-05-23T01:44:37.331Z,24.48
2023-05-23T01:47:06.094Z,25.10
2023-05-23T01:49:34.463Z,21.83
2023-05-23T01:52:02.500Z,26.40
2023-05-23T01:54:30.532Z,24.77
2023-05-23T01:56:58.199Z,30.25
2023-05-23T01:59:25.411Z,33.97
2023-05-23T02:01:52.843Z,28.02
2023-05-23T02:04:19.703Z,26.45
2023-05-23T02:06:47.336Z,26.23
2023-05-23T02:09:14.555Z,32.05
2023-05-23T02:11:41.399Z,30.25
2023-05-23T02:14:09.393Z,25.38
2023-05-23T02:16:36.655Z,26.13
2023-05-23T02:19:04.169Z,26.33
2023-05-23T02:21:34.283Z,25.30
2023-05-23T02:24:02.014Z,20.58
2023-05-23T02:26:28.932Z,21.80
2023-05-23T02:28:55.778Z,18.45
2023-05-23T02:31:23.491Z,25.63
2023-05-23T02:33:50.432Z,18.25
2023-05-23T02:36:17.269Z,22.05
2023-05-23T02:38:44.084Z,18.80
2023-05-23T02:41:11.009Z,19.55
2023-05-23T02:43:39.231Z,15.20
2023-05-23T02:46:06.068Z,17.05
2023-05-23T02:48:32.890Z,18.27
2023-05-23T02:50:59.921Z,14.73
2023-05-23T02:53:26.931Z,19.85
2023-05-23T02:55:53.751Z,15.30
2023-05-23T02:58:20.738Z,16.10
2023-05-23T03:00:47.657Z,13.63
2023-05-23T03:03:14.724Z,15.90
2023-05-23T03:05:42.158Z,16.17
2023-05-23T03:08:09.312Z,13.80
2023-05-23T03:10:36.357Z,14.98
2023-05-23T03:13:03.428Z,16.70
2023-05-23T03:15:30.429Z,14.93
2023-05-23T03:17:57.429Z,13.23
2023-05-23T03:20:24.468Z,15.43
2023-05-23T03:22:51.448Z,18.23
2023-05-23T03:25:18.391Z,15.38
2023-05-23T03:27:45.694Z,14.57
2023-05-23T03:30:13.419Z,14.45
2023-05-23T03:32:40.459Z,16.52
2023-05-23T03:35:08.202Z,15.98
2023-05-23T03:37:35.346Z,13.23
2023-05-23T03:40:02.506Z,15.45
2023-05-23T03:42:30.045Z,15.32
2023-05-23T03:44:57.769Z,14.20
2023-05-23T03:47:24.774Z,15.88
2023-05-23T03:49:51.835Z,13.93
2023-05-23T03:52:18.885Z,13.65
2023-05-23T03:54:46.206Z,13.30
2023-05-23T03:57:13.147Z,18.33
2023-05-23T03:59:40.183Z,15.50
2023-05-23T04:02:07.384Z,16.27
2023-05-23T04:04:34.508Z,16.13
2023-05-23T04:07:01.739Z,15.23
2023-05-23T04:09:29.118Z,15.90
2023-05-23T04:11:56.141Z,15.85
2023-05-23T04:14:24.280Z,17.77
2023-05-23T04:16:51.431Z,15.57
2023-05-23T04:19:18.560Z,17.80
2023-05-23T04:21:45.508Z,16.10
2023-05-23T04:24:12.392Z,13.85
2023-05-23T04:26:39.428Z,15.18
2023-05-23T04:29:06.530Z,14.82
2023-05-23T04:31:34.282Z,16.45
2023-05-23T04:34:02.441Z,17.98
2023-05-23T04:36:30.204Z,14.38
2023-05-23T04:38:57.052Z,13.80
2023-05-23T04:41:24.104Z,12.05
2023-05-23T04:43:54.266Z,15.10
2023-05-23T04:46:27.565Z,17.77
2023-05-23T04:48:55.147Z,13.63
2023-05-23T04:51:22.285Z,13.60
2023-05-23T04:53:50.977Z,14.07
2023-05-23T04:56:19.392Z,13.85
2023-05-23T04:58:48.111Z,13.05
2023-05-23T05:01:15.670Z,15.32
2023-05-23T05:03:42.796Z,15.10
2023-05-23T05:06:09.694Z,11.15
2023-05-23T05:08:36.829Z,18.08
2023-05-23T05:11:03.686Z,14.05
2023-05-23T05:13:30.510Z,13.45
2023-05-23T05:15:57.359Z,14.82
2023-05-23T05:18:24.437Z,14.73
2023-05-23T05:20:51.243Z,14.00
2023-05-23T05:23:18.165Z,12.65
2023-05-23T05:25:45.946Z,13.68
2023-05-23T05:28:12.883Z,15.35
2023-05-23T05:30:40.118Z,12.30
2023-05-23T05:33:07.777Z,12.40
2023-05-23T05:35:40.486Z,13.02
2023-05-23T05:38:08.431Z,12.00
2023-05-23T05:40:35.405Z,12.85
2023-05-23T05:43:02.374Z,12.65
2023-05-23T05:45:29.214Z,13.65
2023-05-23T05:47:56.075Z,12.48
2023-05-23T05:50:22.961Z,15.55
2023-05-23T05:52:49.837Z,13.98
2023-05-23T05:55:16.896Z,10.88
2023-05-23T05:57:43.771Z,10.38
2023-05-23T06:00:15.125Z,12.35
2023-05-23T06:02:51.500Z,11.73
2023-05-23T06:05:18.537Z,11.30
2023-05-23T06:07:45.470Z,9.77
2023-05-23T06:10:13.720Z,8.02
2023-05-23T06:12:40.900Z,9.70
2023-05-23T06:15:09.601Z,8.13
2023-05-23T06:17:36.496Z,9.90
2023-05-23T06:20:04.945Z,7.93
2023-05-23T06:22:31.970Z,8.43
2023-05-23T06:24:58.893Z,8.70
2023-05-23T06:27:25.750Z,7.63
2023-05-23T06:29:52.721Z,6.72
2023-05-23T06:32:20.729Z,5.93
2023-05-23T06:34:47.547Z,6.10
2023-05-23T06:37:14.427Z,7.63
2023-05-23T06:39:41.259Z,4.93
2023-05-23T06:42:08.228Z,6.78
2023-05-23T06:44:35.080Z,6.55
2023-05-23T06:47:01.895Z,5.35
2023-05-23T06:49:29.088Z,6.80
2023-05-23T06:51:55.918Z,7.40
2023-05-23T06:54:22.780Z,6.82
2023-05-23T06:56:49.592Z,8.23
2023-05-23T06:59:16.478Z,6.55
2023-05-23T07:01:43.323Z,5.93
2023-05-23T07:04:12.007Z,5.15
2023-05-23T07:06:39.908Z,5.38
2023-05-23T07:09:06.869Z,5.10
2023-05-23T07:11:33.694Z,5.45
2023-05-23T07:14:00.872Z,9.70
2023-05-23T07:16:27.822Z,5.45
2023-05-23T07:18:54.705Z,6.55
2023-05-23T07:21:21.501Z,7.75
2023-05-23T07:23:48.323Z,5.85
2023-05-23T07:26:15.210Z,5.43
2023-05-23T07:28:42.067Z,5.38
2023-05-23T07:31:10.233Z,7.63
2023-05-23T07:33:37.104Z,4.82
2023-05-23T07:36:03.984Z,5.35
2023-05-23T07:38:30.999Z,4.30
2023-05-23T07:41:09.935Z,3.95
2023-05-23T07:43:38.091Z,3.97
2023-05-23T07:46:05.017Z,3.70
2023-05-23T07:48:32.229Z,4.47
2023-05-23T07:50:59.208Z,3.08
2023-05-23T07:53:26.383Z,3.17
2023-05-23T07:55:53.378Z,3.67
2023-05-23T07:58:20.185Z,3.85
2023-05-23T08:00:47.036Z,3.75
2023-05-23T08:03:13.959Z,5.38
2023-05-23T08:05:40.855Z,4.13
2023-05-23T08:08:07.782Z,7.93
2023-05-23T08:10:34.590Z,8.40
2023-05-23T08:13:06.624Z,7.65
2023-05-23T08:15:33.872Z,7.82
2023-05-23T08:18:00.868Z,10.98
2023-05-23T08:20:31.370Z,9.43
2023-05-23T08:23:02.629Z,15.63
2023-05-23T08:25:34.156Z,12.80
2023-05-23T08:28:01.709Z,14.02
2023-05-23T08:30:29.244Z,10.40
2023-05-23T08:32:57.021Z,10.32
2023-05-23T08:35:24.323Z,12.60
2023-05-23T08:37:52.608Z,10.93
2023-05-23T08:40:23.285Z,12.45
2023-05-23T08:42:51.320Z,13.75
2023-05-23T08:45:19.191Z,12.20
2023-05-23T08:47:47.332Z,11.55
2023-05-23T08:50:17.554Z,11.95
2023-05-23T08:52:56.960Z,12.38
2023-05-23T08:55:29.783Z,17.45
2023-05-23T08:58:01.557Z,12.18
2023-05-23T09:00:29.125Z,13.05
2023-05-23T09:02:57.238Z,12.40
2023-05-23T09:05:24.366Z,19.30
2023-05-23T09:07:51.761Z,15.50
2023-05-23T09:10:22.433Z,14.32
2023-05-23T09:12:49.855Z,17.45
2023-05-23T09:15:17.119Z,12.57
2023-05-23T09:17:45.134Z,16.73
2023-05-23T09:20:15.337Z,16.63
2023-05-23T09:22:49.139Z,17.75
2023-05-23T09:25:16.296Z,15.80
2023-05-23T09:27:45.762Z,16.05
2023-05-23T09:30:15.385Z,9.57
2023-05-23T09:32:42.592Z,11.30
2023-05-23T09:35:14.001Z,14.40
2023-05-23T09:37:45.911Z,10.18
2023-05-23T09:40:15.289Z,13.80
2023-05-23T09:42:44.925Z,13.30
2023-05-23T09:45:16.698Z,14.73
2023-05-23T09:47:53.786Z,15.27
2023-05-23T09:50:22.661Z,11.70
2023-05-23T09:52:51.054Z,14.57
2023-05-23T09:55:18.690Z,10.93
2023-05-23T09:57:50.581Z,16.75
2023-05-23T10:00:18.751Z,16.92
2023-05-23T10:03:14.688Z,7.35
2023-05-23T10:05:50.054Z,11.52
2023-05-23T10:08:39.407Z,10.20
2023-05-23T10:11:35.175Z,11.43
2023-05-23T10:14:07.057Z,8.27
2023-05-23T10:17:03.687Z,9.25
2023-05-23T10:19:54.783Z,8.85
2023-05-23T10:22:23.348Z,11.40
2023-05-23T10:24:51.073Z,9.40
2023-05-23T10:27:18.259Z,11.43
2023-05-23T10:29:45.280Z,6.53
2023-05-23T10:32:14.999Z,10.90
2023-05-23T10:35:06.282Z,4.90
2023-05-23T10:37:45.182Z,7.72
2023-05-23T10:40:26.636Z,8.98
2023-05-23T10:43:01.946Z,7.60
2023-05-23T10:45:29.081Z,8.55
2023-05-23T10:47:56.164Z,7.50
2023-05-23T10:50:37.272Z,5.50
2023-05-23T10:53:06.137Z,6.53
2023-05-23T10:55:37.150Z,7.85
2023-05-23T10:58:21.789Z,8.50
2023-05-23T11:03:37.973Z,6.85
2023-05-23T11:06:05.969Z,8.32
2023-05-23T11:08:48.477Z,8.15
2023-05-23T11:11:15.928Z,11.25
2023-05-23T11:14:00.058Z,10.98
2023-05-23T11:16:42.178Z,14.00
2023-05-23T11:19:22.856Z,12.32
2023-05-23T11:21:56.151Z,14.77
2023-05-23T11:24:23.514Z,17.02
2023-05-23T11:27:01.100Z,16.10
2023-05-23T11:29:28.931Z,14.32
2023-05-23T11:31:57.330Z,12.55
2023-05-23T11:34:27.172Z,8.43
2023-05-23T11:36:56.166Z,10.35
2023-05-23T11:39:23.702Z,13.40
2023-05-23T11:42:03.748Z,13.25
2023-05-23T11:44:30.931Z,8.40
2023-05-23T11:47:15.837Z,15.80
2023-05-23T11:49:47.010Z,22.02
2023-05-23T11:52:14.729Z,10.98
2023-05-23T11:54:43.368Z,17.30
2023-05-23T11:57:11.360Z,12.88
2023-05-23T11:59:38.581Z,16.25
2023-05-23T12:02:07.982Z,19.33
2023-05-23T12:04:36.955Z,14.50
2023-05-23T12:07:06.454Z,19.40
2023-05-23T12:09:41.872Z,16.85
2023-05-23T12:12:08.733Z,23.25
2023-05-23T12:14:35.842Z,18.85
2023-05-23T12:17:02.760Z,16.08
2023-05-23T12:19:29.685Z,11.75
2023-05-23T12:21:56.580Z,9.48
2023-05-23T12:24:23.674Z,15.00
2023-05-23T12:27:00.197Z,12.65
2023-05-23T12:29:37.104Z,14.43
2023-05-23T12:32:06.949Z,9.38
2023-05-23T12:34:33.851Z,13.57
2023-05-23T12:37:17.954Z,13.05
2023-05-23T12:39:46.286Z,13.85
2023-05-23T12:42:13.186Z,12.00
2023-05-23T12:44:43.697Z,16.30
2023-05-23T12:47:10.755Z,12.65
2023-05-23T12:49:38.145Z,15.57
2023-05-23T12:52:05.084Z,17.23
2023-05-23T12:54:31.912Z,15.50
2023-05-23T12:56:58.721Z,17.55
2023-05-23T12:59:25.605Z,16.38
2023-05-23T13:01:52.513Z,12.52
2023-05-23T13:04:19.445Z,14.93
2023-05-23T13:06:46.711Z,13.25
2023-05-23T13:09:13.536Z,10.80
2023-05-23T13:11:41.614Z,15.82
2023-05-23T13:14:08.570Z,10.70
2023-05-23T13:16:36.293Z,14.07
2023-05-23T13:19:03.179Z,14.32
2023-05-23T13:21:30.176Z,10.27
2023-05-23T13:23:57.028Z,12.20
2023-05-23T13:26:23.861Z,11.85
2023-05-23T13:28:50.690Z,10.00
2023-05-23T13:31:17.631Z,18.25
2023-05-23T13:33:44.479Z,10.20
2023-05-23T13:36:11.341Z,16.23
2023-05-23T13:38:38.246Z,8.57
2023-05-23T13:41:05.133Z,12.07
2023-05-23T13:43:32.065Z,17.27
2023-05-23T13:45:59.155Z,10.80
2023-05-23T13:48:26.087Z,12.95
2023-05-23T13:50:53.107Z,9.80
2023-05-23T13:53:21.467Z,14.25
2023-05-23T13:55:48.417Z,16.70
2023-05-23T13:58:15.303Z,15.70
2023-05-23T14:00:43.157Z,13.55
2023-05-23T14:03:10.424Z,16.45
2023-05-23T14:05:37.435Z,11.23
2023-05-23T14:08:04.575Z,11.30
2023-05-23T14:10:33.281Z,13.52
2023-05-23T14:13:00.351Z,19.40
2023-05-23T14:15:28.020Z,12.50
2023-05-23T14:17:56.410Z,12.23
2023-05-23T14:20:23.654Z,15.63
2023-05-23T14:22:51.581Z,16.92
2023-05-23T14:25:18.864Z,13.63
2023-05-23T14:27:45.728Z,13.20
2023-05-23T14:30:13.063Z,10.75
2023-05-23T14:32:40.267Z,16.42
2023-05-23T14:35:10.587Z,9.50
2023-05-23T14:37:37.700Z,12.57
2023-05-23T14:40:10.159Z,16.70
2023-05-23T14:42:37.669Z,14.70
2023-05-23T14:45:05.034Z,10.13
2023-05-23T14:47:32.581Z,12.98
2023-05-23T14:49:59.784Z,14.00
2023-05-23T14:52:26.724Z,18.63
2023-05-23T14:54:53.527Z,17.52
2023-05-23T14:57:20.667Z,9.10
2023-05-23T14:59:47.744Z,15.93
2023-05-23T15:02:15.539Z,12.63
2023-05-23T15:04:42.641Z,17.95
2023-05-23T15:07:09.568Z,13.55
2023-05-23T15:09:36.484Z,8.98
2023-05-23T15:12:05.181Z,14.15
2023-05-23T15:14:32.176Z,12.50
2023-05-23T15:17:08.052Z,11.88
2023-05-23T15:19:36.774Z,14.70
2023-05-23T15:22:06.749Z,10.82
2023-05-23T15:24:34.970Z,15.63
2023-05-23T15:27:15.858Z,11.38
2023-05-23T15:29:46.785Z,9.23
2023-05-23T15:32:13.753Z,13.00
2023-05-23T15:34:40.754Z,9.43
2023-05-23T15:37:07.573Z,13.65
2023-05-23T15:39:34.438Z,13.32
2023-05-23T15:42:01.289Z,10.65
2023-05-23T15:44:28.158Z,11.75
2023-05-23T15:46:55.416Z,14.13
2023-05-23T15:49:26.462Z,10.40
2023-05-23T15:51:55.070Z,20.05
2023-05-23T15:54:22.170Z,17.00
2023-05-23T15:56:49.028Z,12.65
2023-05-23T15:59:16.300Z,10.98
2023-05-23T16:01:43.263Z,11.65
2023-05-23T16:04:10.192Z,12.07
2023-05-23T16:06:39.293Z,15.07
2023-05-23T16:09:06.339Z,12.88
2023-05-23T16:11:33.225Z,10.02
2023-05-23T16:14:00.085Z,11.98
2023-05-23T16:16:26.988Z,14.05
2023-05-23T16:18:54.007Z,12.90
2023-05-23T16:21:21.123Z,12.90
2023-05-23T16:23:51.316Z,12.25
2023-05-23T16:26:19.087Z,14.02
2023-05-23T16:28:45.903Z,7.20
2023-05-23T16:31:17.007Z,13.77
2023-05-23T16:33:44.841Z,12.70
2023-05-23T16:36:11.737Z,10.18
2023-05-23T16:38:38.800Z,8.45
2023-05-23T16:41:05.716Z,13.75
2023-05-23T16:43:33.424Z,11.52
2023-05-23T16:46:00.365Z,13.15
2023-05-23T16:48:27.338Z,16.75
2023-05-23T16:50:55.205Z,11.35
2023-05-23T16:53:22.239Z,9.82
2023-05-23T16:55:49.372Z,11.30
2023-05-23T16:58:18.645Z,10.52
2023-05-23T17:00:46.957Z,9.73
2023-05-23T17:03:13.843Z,12.85
2023-05-23T17:05:41.185Z,9.40
2023-05-23T17:08:08.322Z,10.93
2023-05-23T17:10:35.460Z,10.82
2023-05-23T17:13:02.246Z,12.95
2023-05-23T17:15:29.232Z,5.60
2023-05-23T17:17:56.144Z,12.65
2023-05-23T17:20:24.358Z,14.88
2023-05-23T17:22:51.883Z,14.57
2023-05-23T17:25:19.051Z,11.65
2023-05-23T17:27:46.252Z,6.65
2023-05-23T17:30:18.120Z,11.02
2023-05-23T17:32:49.737Z,17.67
2023-05-23T17:35:16.586Z,12.52
2023-05-23T17:37:44.782Z,10.63
2023-05-23T17:40:12.579Z,12.45
2023-05-23T17:42:40.718Z,11.88
2023-05-23T17:45:09.401Z,9.45
2023-05-23T17:47:36.344Z,12.25
2023-05-23T17:50:04.899Z,9.48
2023-05-23T17:52:32.474Z,12.02
2023-05-23T17:54:59.293Z,10.15
2023-05-23T17:57:26.750Z,8.73
2023-05-23T17:59:53.715Z,10.95
2023-05-23T18:02:20.563Z,13.25
2023-05-23T18:04:47.639Z,9.50
2023-05-23T18:07:18.550Z,11.02
2023-05-23T18:09:46.993Z,10.38
2023-05-23T18:12:14.688Z,9.95
2023-05-23T18:14:42.105Z,9.75
2023-05-23T18:17:09.728Z,13.25
2023-05-23T18:19:36.816Z,9.90
2023-05-23T18:22:03.811Z,12.48
2023-05-23T18:24:30.724Z,10.27
2023-05-23T18:26:58.272Z,14.65
2023-05-23T18:29:25.228Z,14.25
2023-05-23T18:31:52.047Z,10.60
2023-05-23T18:34:18.996Z,11.75
2023-05-23T18:36:46.142Z,20.25
2023-05-23T18:39:15.567Z,9.13
2023-05-23T18:41:42.754Z,11.48
2023-05-23T18:44:09.591Z,13.02
2023-05-23T18:46:36.686Z,12.05
2023-05-23T18:49:04.826Z,14.55
2023-05-23T18:51:32.432Z,14.15
2023-05-23T18:53:59.373Z,11.32
2023-05-23T18:56:26.896Z,12.00
2023-05-23T18:58:53.745Z,10.57
2023-05-23T19:01:21.347Z,22.77
2023-05-23T19:03:48.585Z,9.27
2023-05-23T19:06:15.864Z,12.23
2023-05-23T19:08:42.960Z,11.50
2023-05-23T19:11:10.793Z,12.18
2023-05-23T19:13:37.991Z,7.20
2023-05-23T19:16:05.093Z,14.35
2023-05-23T19:18:32.112Z,9.32
2023-05-23T19:20:59.158Z,9.20
2023-05-23T19:23:26.492Z,14.25
2023-05-23T19:25:53.389Z,15.95
2023-05-23T19:28:20.317Z,12.75
2023-05-23T19:30:47.297Z,12.55
2023-05-23T19:33:14.552Z,8.38
2023-05-23T19:35:41.571Z,12.70
2023-05-23T19:38:08.463Z,8.43
2023-05-23T19:40:35.365Z,12.00
2023-05-23T19:43:02.185Z,8.80
2023-05-23T19:45:29.020Z,12.20
2023-05-23T19:47:57.989Z,13.57
2023-05-23T19:50:24.866Z,12.43
2023-05-23T19:52:52.237Z,12.82
2023-05-23T19:55:19.501Z,10.73
2023-05-23T19:57:46.552Z,11.13
2023-05-23T20:00:14.732Z,17.67
2023-05-23T20:02:42.519Z,12.90
2023-05-23T20:05:09.628Z,12.27
2023-05-23T20:07:36.630Z,10.20
2023-05-23T20:10:04.130Z,8.10
2023-05-23T20:12:31.014Z,10.23
2023-05-23T20:14:57.843Z,13.93
2023-05-23T20:17:24.709Z,13.05
2023-05-23T20:19:51.641Z,11.90
2023-05-23T20:22:18.575Z,10.10
2023-05-23T20:24:46.624Z,10.73
2023-05-23T20:27:13.613Z,14.57
2023-05-23T20:29:40.679Z,10.95
2023-05-23T20:32:07.499Z,15.38
2023-05-23T20:34:34.424Z,17.13
2023-05-23T20:37:01.558Z,15.32
2023-05-23T20:39:28.412Z,19.33
2023-05-23T20:41:55.286Z,13.23
2023-05-23T20:44:22.145Z,18.83
2023-05-23T20:46:49.169Z,11.98
2023-05-23T20:49:16.589Z,11.88
2023-05-23T20:51:43.531Z,16.25
2023-05-23T20:54:10.434Z,17.25
2023-05-23T20:56:37.283Z,17.08
2023-05-23T20:59:04.125Z,12.00
2023-05-23T21:01:30.972Z,16.17
2023-05-23T21:03:57.985Z,15.93
2023-05-23T21:06:24.831Z,11.10
2023-05-23T21:08:51.654Z,19.63
2023-05-23T21:11:18.548Z,14.95
2023-05-23T21:13:45.620Z,16.17
2023-05-23T21:16:14.458Z,12.35
2023-05-23T21:18:41.600Z,15.60
2023-05-23T21:21:08.464Z,11.77
2023-05-23T21:23:35.349Z,12.88
2023-05-23T21:26:02.314Z,10.77
2023-05-23T21:28:29.156Z,13.05
2023-05-23T21:30:56.551Z,15.98
2023-05-23T21:33:23.435Z,12.77
2023-05-23T21:35:51.133Z,11.70
2023-05-23T21:38:17.992Z,14.00
2023-05-23T21:40:45.029Z,12.95
2023-05-23T21:43:12.132Z,12.93
2023-05-23T21:45:39.279Z,13.45
2023-05-23T21:48:06.190Z,12.07
2023-05-23T21:50:33.098Z,22.80
2023-05-23T21:52:59.918Z,13.57
2023-05-23T21:55:27.285Z,15.88
2023-05-23T21:57:54.170Z,16.77
2023-05-23T22:00:22.513Z,11.93
2023-05-23T22:02:49.453Z,14.80
2023-05-23T22:05:16.598Z,11.07
2023-05-23T22:07:43.458Z,10.38
2023-05-23T22:10:11.229Z,13.52
2023-05-23T22:12:38.668Z,15.90
2023-05-23T22:15:08.168Z,15.77
2023-05-23T22:17:35.263Z,13.15
2023-05-23T22:20:05.203Z,14.23
2023-05-23T22:22:32.184Z,15.15
2023-05-23T22:24:59.123Z,19.38
2023-05-23T22:27:26.043Z,16.98
2023-05-23T22:29:53.099Z,15.35
2023-05-23T22:32:22.849Z,17.23
2023-05-23T22:34:49.747Z,15.50
2023-05-23T22:37:18.322Z,13.05
2023-05-23T22:39:45.134Z,18.23
2023-05-23T22:42:11.986Z,19.73
2023-05-23T22:44:38.792Z,16.02
2023-05-23T22:47:10.119Z,14.52
2023-05-23T22:49:37.490Z,15.13
2023-05-23T22:52:04.709Z,16.88
2023-05-23T22:54:31.536Z,10.75
2023-05-23T22:56:58.372Z,10.77
2023-05-23T22:59:25.285Z,11.55
2023-05-23T23:01:52.203Z,17.83
2023-05-23T23:04:23.564Z,13.15
2023-05-23T23:06:53.522Z,21.63
2023-05-23T23:09:20.537Z,10.43
2023-05-23T23:11:47.367Z,16.05
2023-05-23T23:14:14.206Z,10.90
2023-05-23T23:16:42.533Z,14.50
2023-05-23T23:19:09.480Z,21.83
2023-05-23T23:21:37.559Z,19.63
2023-05-23T23:24:04.996Z,10.55
2023-05-23T23:26:31.840Z,20.33
2023-05-23T23:28:58.652Z,11.77
2023-05-23T23:31:25.483Z,15.32
2023-05-23T23:33:52.373Z,13.70
2023-05-23T23:36:19.172Z,17.00
2023-05-23T23:38:46.016Z,18.02
2023-05-23T23:41:12.900Z,17.08
2023-05-23T23:43:39.691Z,10.98
2023-05-23T23:46:06.550Z,12.65
2023-05-23T23:48:33.426Z,19.83
2023-05-23T23:51:00.302Z,19.10
2023-05-23T23:55:54.443Z,15.63
2023-05-23T23:58:21.254Z,17.02
